Time;durP1;ratioP1;P1;durP2;ratioP2;P2;SDS_P1;SDS_P2;PMS_P1;PMS_P2;Temp;Humidity;BMP_temperature;BMP_pressure;BME280_temperature;BME280_humidity;BME280_pressure;Samples;Min_cycle;Max_cycle;Signal;HPM_P1;HPM_P2
2021/12/21 00:02:19;;;;;;;3.50;1.57;;;-3.80;99.90;;;;;;5031980;28;20266;-60
2021/12/21 00:04:44;;;;;;;10.13;2.47;;;-3.90;99.90;;;;;;5031582;28;20187;-61
2021/12/21 00:07:10;;;;;;;4.50;2.10;;;-4.10;99.90;;;;;;4997663;28;20183;-60
2021/12/21 00:09:36;;;;;;;10.20;2.07;;;-4.10;99.90;;;;;;5031658;28;20217;-60
2021/12/21 00:12:02;;;;;;;6.53;1.07;;;-4.20;99.90;;;;;;5030955;28;20220;-59
2021/12/21 00:14:58;;;;;;;5.67;1.83;;;-4.20;99.90;;;;;;5021970;28;20260;-60
2021/12/21 00:17:42;;;;;;;5.63;1.43;;;-4.30;99.90;;;;;;5010301;28;20238;-60
2021/12/21 00:20:49;;;;;;;6.10;1.53;;;-4.30;99.90;;;;;;5011278;28;20204;-58
2021/12/21 00:25:31;;;;;;;5.33;1.07;;;-4.50;99.90;;;;;;5015888;28;20614;-60
2021/12/21 00:27:56;;;;;;;13.97;1.83;;;-4.50;99.90;;;;;;5015250;28;20184;-60
2021/12/21 00:30:22;;;;;;;3.07;0.97;;;-4.60;99.90;;;;;;5028465;28;20186;-60
2021/12/21 00:32:48;;;;;;;1.50;0.97;;;-4.70;99.90;;;;;;5035221;28;20635;-58
2021/12/21 00:35:14;;;;;;;2.03;1.10;;;-4.80;99.90;;;;;;5017699;28;20188;-59
2021/12/21 00:37:41;;;;;;;2.23;0.97;;;-4.80;99.90;;;;;;5035443;28;20214;-59
2021/12/21 00:40:09;;;;;;;1.80;0.80;;;-4.90;99.90;;;;;;5035118;28;20700;-60
2021/12/21 00:42:34;;;;;;;2.53;1.20;;;-5.00;99.90;;;;;;5034856;28;20191;-58
2021/12/21 00:45:00;;;;;;;5.90;2.00;;;-5.10;99.90;;;;;;5021090;28;20199;-58
2021/12/21 00:47:26;;;;;;;2.70;1.43;;;-5.10;99.90;;;;;;5015485;28;20189;-61
2021/12/21 00:49:59;;;;;;;4.17;1.50;;;-5.20;99.90;;;;;;5015463;28;20171;-58
2021/12/21 00:52:25;;;;;;;1.47;0.70;;;-5.20;99.90;;;;;;5034907;28;20210;-57
2021/12/21 00:54:51;;;;;;;6.37;1.13;;;-5.30;99.90;;;;;;5034941;28;20269;-60
2021/12/21 00:57:18;;;;;;;5.13;1.40;;;-5.30;99.90;;;;;;5034597;28;20201;-58
2021/12/21 00:59:43;;;;;;;2.27;0.90;;;-5.30;99.90;;;;;;5035187;28;20583;-59
2021/12/21 01:02:10;;;;;;;1.43;0.80;;;-5.40;99.90;;;;;;5034614;28;20183;-58
2021/12/21 01:04:41;;;;;;;2.30;0.80;;;-5.50;99.90;;;;;;5035187;28;20182;-58
2021/12/21 01:07:21;;;;;;;2.63;0.70;;;-5.40;99.90;;;;;;5034957;28;20233;-59
2021/12/21 01:17:46;;;;;;;5.20;0.60;;;-5.50;99.90;;;;;;5034192;28;20206;-60
2021/12/21 01:20:26;;;;;;;1.27;0.63;;;-5.50;99.90;;;;;;5034501;28;20171;-57
2021/12/21 01:25:49;;;;;;;1.03;0.70;;;-5.60;99.90;;;;;;5034280;28;20250;-55
2021/12/21 01:35:54;;;;;;;2.33;0.80;;;-5.60;99.90;;;;;;5034176;28;20173;-59
2021/12/21 01:38:31;;;;;;;3.33;1.07;;;-5.60;99.90;;;;;;5034273;28;20249;-57
2021/12/21 01:43:36;;;;;;;2.73;0.93;;;-5.70;99.90;;;;;;5034028;28;20175;-55
2021/12/21 01:51:30;;;;;;;1.20;0.50;;;-5.70;99.90;;;;;;5020998;28;20253;-56
2021/12/21 01:53:56;;;;;;;0.90;0.70;;;-5.70;99.90;;;;;;5014004;28;20635;-56
2021/12/21 01:56:23;;;;;;;1.00;0.50;;;-5.70;99.90;;;;;;5014161;28;20531;-55
2021/12/21 01:58:49;;;;;;;1.60;0.77;;;-5.70;99.90;;;;;;5014277;28;20195;-57
2021/12/21 02:01:18;;;;;;;2.73;0.77;;;-5.70;99.90;;;;;;5014271;28;20193;-55
2021/12/21 02:03:47;;;;;;;0.77;0.37;;;-5.80;99.90;;;;;;5013805;28;20692;-58
2021/12/21 02:06:21;;;;;;;3.20;0.53;;;-5.70;99.90;;;;;;5013961;28;20663;-57
2021/12/21 02:08:48;;;;;;;0.60;0.47;;;-5.80;99.90;;;;;;5014091;28;20246;-57
2021/12/21 02:11:15;;;;;;;0.67;0.47;;;-5.80;99.90;;;;;;5013292;28;20572;-55
2021/12/21 02:13:46;;;;;;;1.50;0.80;;;-5.80;99.90;;;;;;4998523;28;20230;-56
2021/12/21 02:16:13;;;;;;;3.47;0.83;;;-5.90;99.90;;;;;;5033461;28;20262;-57
2021/12/21 02:21:28;;;;;;;3.10;0.80;;;-5.90;99.90;;;;;;5033402;28;20281;-56
2021/12/21 02:23:59;;;;;;;3.30;0.90;;;-5.90;99.90;;;;;;5033468;28;20289;-60
2021/12/21 02:26:39;;;;;;;1.73;0.60;;;-6.00;99.90;;;;;;5033297;28;20173;-55
2021/12/21 02:29:48;;;;;;;2.30;1.13;;;-6.00;99.90;;;;;;5030477;28;20228;-56
2021/12/21 02:31:55;;;;;;;2.37;1.20;;;-6.00;99.90;;;;;;5004829;28;20668;-59
2021/12/21 02:34:23;;;;;;;2.27;0.93;;;-6.00;99.90;;;;;;5013382;28;20179;-56
2021/12/21 02:36:52;;;;;;;1.97;1.10;;;-6.10;99.90;;;;;;5013268;28;20195;-64
2021/12/21 02:39:19;;;;;;;1.37;0.80;;;-6.20;99.90;;;;;;5013395;28;20194;-56
2021/12/21 02:41:45;;;;;;;0.83;0.70;;;-6.20;99.90;;;;;;5013062;28;20691;-58
2021/12/21 02:44:12;;;;;;;1.67;1.10;;;-6.10;99.90;;;;;;5019612;28;20186;-56
2021/12/21 02:46:39;;;;;;;2.30;1.37;;;-6.10;99.90;;;;;;5032814;28;20183;-57
2021/12/21 02:49:09;;;;;;;0.50;0.40;;;-6.10;99.90;;;;;;5032810;28;20653;-57
2021/12/21 02:51:40;;;;;;;1.33;0.80;;;-6.10;99.90;;;;;;5019028;28;20294;-59
2021/12/21 02:54:07;;;;;;;1.47;1.00;;;-6.20;99.90;;;;;;5012765;28;20179;-56
2021/12/21 02:56:33;;;;;;;1.37;1.00;;;-6.20;99.90;;;;;;5012549;28;20194;-58
2021/12/21 02:58:59;;;;;;;3.30;1.50;;;-6.20;99.90;;;;;;5012575;28;20274;-58
2021/12/21 03:01:24;;;;;;;2.37;1.03;;;-6.30;99.90;;;;;;5013049;28;20551;-57
2021/12/21 03:03:52;;;;;;;3.37;1.30;;;-6.30;99.90;;;;;;5012796;28;20678;-59
2021/12/21 03:07:19;;;;;;;2.50;1.40;;;-6.30;99.90;;;;;;5012856;28;20199;-55
2021/12/21 03:09:37;;;;;;;3.63;1.07;;;-6.30;99.90;;;;;;5009809;28;20225;-54
2021/12/21 03:11:57;;;;;;;2.70;1.03;;;-6.30;99.90;;;;;;5011408;28;20219;-54
2021/12/21 03:14:24;;;;;;;2.60;1.27;;;-6.20;99.90;;;;;;5021312;28;20249;-57
2021/12/21 03:16:50;;;;;;;1.97;1.20;;;-6.30;99.90;;;;;;5032293;28;20213;-69
2021/12/21 03:19:16;;;;;;;2.33;1.00;;;-6.30;99.90;;;;;;5032433;28;20175;-55
2021/12/21 03:21:42;;;;;;;2.70;1.13;;;-6.40;99.90;;;;;;5032143;28;20183;-53
2021/12/21 03:24:09;;;;;;;3.50;1.50;;;-6.30;99.90;;;;;;5031747;28;20178;-55
2021/12/21 03:26:36;;;;;;;2.93;1.37;;;-6.40;99.90;;;;;;5031935;28;20218;-58
2021/12/21 03:29:03;;;;;;;3.43;1.37;;;-6.40;99.90;;;;;;5030050;28;20523;-59
2021/12/21 03:31:29;;;;;;;1.67;1.10;;;-6.40;99.90;;;;;;5012113;28;20198;-57
2021/12/21 03:33:55;;;;;;;7.43;1.67;;;-6.40;99.90;;;;;;5012299;28;20183;-55
2021/12/21 03:36:21;;;;;;;2.97;1.40;;;-6.40;99.90;;;;;;5012458;28;20191;-57
2021/12/21 03:38:56;;;;;;;4.73;1.50;;;-6.40;99.90;;;;;;5012800;28;20180;-55
2021/12/21 03:41:22;;;;;;;3.73;1.20;;;-6.40;99.90;;;;;;5011931;28;20177;-57
2021/12/21 03:43:48;;;;;;;2.90;1.73;;;-6.40;99.90;;;;;;5015917;28;20191;-58
2021/12/21 03:46:15;;;;;;;3.57;1.60;;;-6.40;99.90;;;;;;5031554;28;20237;-59
2021/12/21 03:48:45;;;;;;;3.87;1.70;;;-6.50;99.90;;;;;;5032138;28;20186;-59
2021/12/21 03:51:11;;;;;;;2.43;1.23;;;-6.40;99.90;;;;;;5020741;28;20595;-57
2021/12/21 03:53:38;;;;;;;1.20;0.80;;;-6.40;99.90;;;;;;5011983;28;20302;-57
2021/12/21 03:56:21;;;;;;;3.97;1.77;;;-6.40;99.90;;;;;;5011578;28;20274;-59
2021/12/21 03:58:47;;;;;;;3.27;1.23;;;-6.20;99.90;;;;;;5012618;28;20184;-59
2021/12/21 04:01:14;;;;;;;3.23;1.40;;;-6.00;99.90;;;;;;5012382;28;20286;-60
2021/12/21 04:03:40;;;;;;;3.27;1.73;;;-6.00;99.90;;;;;;5011983;28;20183;-57
2021/12/21 04:06:06;;;;;;;2.30;1.37;;;-6.00;99.90;;;;;;5011377;28;20655;-56
2021/12/21 04:08:34;;;;;;;3.57;2.10;;;-5.90;99.90;;;;;;5012341;28;20179;-58
2021/12/21 04:11:01;;;;;;;2.97;1.60;;;-5.90;99.90;;;;;;5011483;28;20283;-58
2021/12/21 04:13:27;;;;;;;4.00;1.67;;;-6.00;99.90;;;;;;5012639;28;20535;-59
2021/12/21 04:15:54;;;;;;;3.10;1.57;;;-5.90;99.90;;;;;;5031651;28;20248;-58
2021/12/21 04:18:22;;;;;;;6.03;1.80;;;-6.00;99.90;;;;;;5031485;28;20187;-55
2021/12/21 04:20:49;;;;;;;3.03;1.90;;;-6.00;99.90;;;;;;5031351;28;20599;-58
2021/12/21 04:23:15;;;;;;;5.00;2.10;;;-6.00;99.90;;;;;;5013911;28;20178;-56
2021/12/21 04:25:42;;;;;;;6.43;1.97;;;-6.00;99.90;;;;;;5031089;28;20183;-57
2021/12/21 04:28:08;;;;;;;1.97;1.10;;;-6.00;99.90;;;;;;5031312;28;20190;-56
2021/12/21 04:30:33;;;;;;;2.20;1.23;;;-6.00;99.90;;;;;;5017009;28;20268;-57
2021/12/21 04:32:59;;;;;;;2.70;1.57;;;-5.90;99.90;;;;;;5011029;28;20223;-58
2021/12/21 04:35:25;;;;;;;3.80;1.80;;;-5.90;99.90;;;;;;5012036;28;20184;-58
2021/12/21 04:37:59;;;;;;;3.90;1.67;;;-5.80;99.90;;;;;;5011279;28;20179;-57
2021/12/21 04:40:45;;;;;;;5.07;2.10;;;-5.70;99.90;;;;;;5011254;28;20164;-57
2021/12/21 04:43:11;;;;;;;2.57;1.53;;;-5.60;99.90;;;;;;5011006;28;20222;-53
2021/12/21 04:45:37;;;;;;;4.60;1.83;;;-5.50;99.90;;;;;;5030227;28;20211;-54
2021/12/21 04:48:03;;;;;;;2.87;2.27;;;-5.40;99.90;;;;;;5031401;28;20302;-54
2021/12/21 04:50:29;;;;;;;3.77;1.50;;;-5.40;99.90;;;;;;5031308;28;20261;-57
2021/12/21 04:52:54;;;;;;;4.90;2.37;;;-5.30;99.90;;;;;;5030624;28;20237;-64
2021/12/21 04:55:20;;;;;;;3.70;1.80;;;-5.30;99.90;;;;;;5030688;28;20184;-60
2021/12/21 04:57:46;;;;;;;3.87;2.20;;;-5.30;99.90;;;;;;5030810;28;20188;-55
2021/12/21 05:00:13;;;;;;;4.93;1.53;;;-5.20;99.90;;;;;;5013138;28;20534;-59
2021/12/21 05:02:39;;;;;;;4.63;2.10;;;-5.20;99.90;;;;;;5030648;28;20188;-57
2021/12/21 05:05:05;;;;;;;3.27;1.63;;;-5.20;99.90;;;;;;5030962;28;20183;-56
2021/12/21 05:07:34;;;;;;;3.40;1.67;;;-5.20;99.90;;;;;;5030588;28;20177;-56
2021/12/21 05:10:02;;;;;;;4.57;2.03;;;-5.20;99.90;;;;;;5034655;28;20215;-56
2021/12/21 05:12:28;;;;;;;4.70;2.83;;;-5.20;99.90;;;;;;5034135;28;20214;-59
2021/12/21 05:14:55;;;;;;;5.53;2.13;;;-5.20;99.90;;;;;;5021686;28;20255;-60
2021/12/21 05:17:21;;;;;;;7.77;3.03;;;-5.20;99.90;;;;;;5033247;28;20538;-61
2021/12/21 05:19:47;;;;;;;3.10;2.07;;;-5.20;99.90;;;;;;5034086;28;20184;-60
2021/12/21 05:22:12;;;;;;;6.93;1.93;;;-5.20;99.90;;;;;;5033685;28;20199;-59
2021/12/21 05:24:39;;;;;;;6.03;2.33;;;-5.20;99.90;;;;;;5034397;28;20244;-60
2021/12/21 05:27:05;;;;;;;4.47;2.10;;;-5.20;99.90;;;;;;5034243;28;20180;-60
2021/12/21 05:29:32;;;;;;;3.10;1.80;;;-5.20;99.90;;;;;;5028025;28;20231;-62
2021/12/21 05:31:59;;;;;;;6.77;2.87;;;-5.30;99.90;;;;;;5014181;28;20267;-59
2021/12/21 05:34:29;;;;;;;2.97;1.37;;;-5.20;99.90;;;;;;5014110;28;20230;-60
2021/12/21 05:36:55;;;;;;;6.03;1.80;;;-5.30;99.90;;;;;;5015466;28;20222;-60
2021/12/21 05:39:25;;;;;;;4.83;2.00;;;-5.30;99.90;;;;;;5025265;28;20197;-60
2021/12/21 05:41:54;;;;;;;3.97;1.90;;;-5.30;99.90;;;;;;5020306;28;20198;-61
2021/12/21 05:44:22;;;;;;;12.80;3.03;;;-5.30;99.90;;;;;;5026767;28;20200;-60
2021/12/21 05:46:49;;;;;;;4.67;1.83;;;-5.30;99.90;;;;;;5022687;28;20244;-59
2021/12/21 05:49:24;;;;;;;6.37;2.20;;;-5.30;99.90;;;;;;5032195;28;20282;-60
2021/12/21 05:51:50;;;;;;;1.53;1.13;;;-5.30;99.90;;;;;;5028747;28;20233;-61
2021/12/21 05:54:18;;;;;;;4.40;1.80;;;-5.30;99.90;;;;;;5032068;28;20195;-61
2021/12/21 05:56:44;;;;;;;3.07;1.37;;;-5.30;99.90;;;;;;5021133;28;20549;-62
2021/12/21 05:59:11;;;;;;;5.40;2.53;;;-5.30;99.90;;;;;;5031360;28;20197;-60
2021/12/21 06:01:37;;;;;;;8.20;2.10;;;-5.20;99.90;;;;;;5031941;28;20187;-61
2021/12/21 06:04:03;;;;;;;4.73;2.80;;;-5.20;99.90;;;;;;5032256;28;20544;-62
2021/12/21 06:06:31;;;;;;;7.83;3.50;;;-5.30;99.90;;;;;;5004339;28;20578;-60
2021/12/21 06:09:00;;;;;;;6.40;2.73;;;-5.30;99.90;;;;;;5027033;28;20186;-65
2021/12/21 06:11:25;;;;;;;5.13;2.10;;;-5.40;99.90;;;;;;5023293;28;20200;-62
2021/12/21 06:27:10;;;;;;;8.97;3.13;;;-5.50;99.90;;;;;;5017534;28;20194;-60
2021/12/21 06:29:36;;;;;;;7.73;2.30;;;-5.60;99.90;;;;;;5031305;28;20610;-61
2021/12/21 06:32:02;;;;;;;5.80;2.53;;;-5.60;99.90;;;;;;5017868;28;20215;-61
2021/12/21 06:34:28;;;;;;;6.70;3.30;;;-5.60;99.90;;;;;;5032084;28;20627;-62
2021/12/21 06:36:54;;;;;;;3.33;1.80;;;-5.60;99.90;;;;;;5018035;28;20541;-61
2021/12/21 06:39:20;;;;;;;7.10;2.63;;;-5.60;99.90;;;;;;5013734;28;20225;-60
2021/12/21 06:41:46;;;;;;;4.93;1.97;;;-5.70;99.90;;;;;;5019947;28;20222;-59
2021/12/21 06:44:14;;;;;;;8.70;2.70;;;-5.80;99.90;;;;;;5029822;28;20191;-63
2021/12/21 06:51:58;;;;;;;3.17;1.77;;;-5.90;99.90;;;;;;5025825;28;20313;-62
2021/12/21 06:54:23;;;;;;;10.33;2.90;;;-5.90;99.90;;;;;;5031761;28;20198;-61
2021/12/21 06:56:49;;;;;;;3.63;1.60;;;-5.90;99.90;;;;;;5032291;28;20543;-64
2021/12/21 06:59:15;;;;;;;6.30;2.30;;;-5.90;99.90;;;;;;5031721;28;20504;-62
2021/12/21 07:01:41;;;;;;;4.10;1.50;;;-5.90;99.90;;;;;;5031708;28;20557;-61
2021/12/21 07:04:14;;;;;;;3.83;1.53;;;-5.90;99.90;;;;;;5030568;28;20266;-63
2021/12/21 07:06:59;;;;;;;4.10;2.37;;;-5.80;99.90;;;;;;5030614;28;20670;-62
2021/12/21 07:09:34;;;;;;;4.23;1.57;;;-5.80;99.90;;;;;;5025759;28;20191;-62
2021/12/21 07:12:26;;;;;;;4.93;1.97;;;-5.70;99.90;;;;;;5030761;28;20218;-66
2021/12/21 07:20:15;;;;;;;8.63;2.27;;;-5.60;99.90;;;;;;5031277;28;20209;-63
2021/12/21 07:22:41;;;;;;;8.17;3.33;;;-5.50;99.90;;;;;;5031853;28;20214;-63
2021/12/21 07:25:07;;;;;;;8.37;3.60;;;-5.40;99.90;;;;;;5030792;28;20301;-61
2021/12/21 07:27:33;;;;;;;6.70;2.40;;;-5.40;99.90;;;;;;5031247;28;20572;-60
2021/12/21 07:29:58;;;;;;;6.97;2.63;;;-5.30;99.90;;;;;;5030322;28;20221;-61
2021/12/21 07:32:24;;;;;;;6.67;3.13;;;-5.30;99.90;;;;;;5030846;28;20643;-62
2021/12/21 07:34:50;;;;;;;3.43;2.10;;;-5.30;99.90;;;;;;5013636;28;20538;-61
2021/12/21 07:37:19;;;;;;;4.20;2.07;;;-5.20;99.90;;;;;;4997205;28;20240;-63
2021/12/21 07:39:45;;;;;;;4.33;2.20;;;-5.10;99.90;;;;;;5013534;28;20184;-62
2021/12/21 07:42:10;;;;;;;3.73;1.70;;;-5.10;99.90;;;;;;5031033;28;20647;-61
2021/12/21 07:44:36;;;;;;;7.60;2.57;;;-5.00;99.90;;;;;;5020360;28;20595;-65
2021/12/21 07:47:02;;;;;;;4.07;2.07;;;-5.00;99.90;;;;;;5011747;28;20184;-63
2021/12/21 07:49:28;;;;;;;5.83;2.37;;;-4.90;99.90;;;;;;5011600;28;20518;-65
2021/12/21 07:51:54;;;;;;;3.70;1.97;;;-4.90;99.90;;;;;;5028401;28;20608;-62
2021/12/21 07:54:23;;;;;;;4.20;2.27;;;-4.90;99.90;;;;;;4996096;28;20293;-61
2021/12/21 07:56:49;;;;;;;6.93;2.70;;;-4.90;99.90;;;;;;5013636;28;20183;-60
2021/12/21 07:59:15;;;;;;;3.37;1.77;;;-4.80;99.90;;;;;;5031112;28;20183;-60
2021/12/21 08:01:41;;;;;;;6.17;2.40;;;-4.80;99.90;;;;;;5031128;28;20591;-62
2021/12/21 08:04:07;;;;;;;5.20;2.53;;;-4.60;99.90;;;;;;5030388;28;20678;-62
2021/12/21 08:06:37;;;;;;;3.47;1.57;;;-4.20;99.90;;;;;;5030990;28;20189;-61
2021/12/21 08:09:04;;;;;;;3.63;2.00;;;-4.20;99.90;;;;;;5030396;28;20176;-61
2021/12/21 08:14:00;;;;;;;4.20;1.90;;;-4.50;99.90;;;;;;5007362;28;20260;-61
2021/12/21 08:16:26;;;;;;;3.60;1.63;;;-4.60;99.90;;;;;;5010863;28;20193;-61
2021/12/21 08:18:52;;;;;;;3.60;2.00;;;-4.30;99.90;;;;;;4993553;28;20627;-61
2021/12/21 08:21:19;;;;;;;4.53;1.63;;;-3.00;99.90;;;;;;5010123;28;20180;-60
2021/12/21 08:23:45;;;;;;;5.50;2.70;;;-2.90;98.90;;;;;;5010417;28;20238;-62
2021/12/21 08:26:12;;;;;;;4.07;2.27;;;-3.60;99.90;;;;;;5010786;28;20262;-61
2021/12/21 08:28:37;;;;;;;3.37;1.97;;;-4.10;99.90;;;;;;4993595;28;20231;-61
2021/12/21 08:31:04;;;;;;;6.23;2.20;;;-4.30;99.90;;;;;;5029614;28;20591;-66
2021/12/21 08:33:29;;;;;;;5.87;2.60;;;-4.50;99.90;;;;;;5030318;28;20218;-63
2021/12/21 08:35:56;;;;;;;3.03;1.70;;;-4.50;99.90;;;;;;5030927;28;20230;-60
2021/12/21 08:38:21;;;;;;;5.63;2.40;;;-4.30;99.90;;;;;;5029593;28;20238;-62
2021/12/21 08:40:50;;;;;;;4.43;2.00;;;-3.70;99.90;;;;;;5030425;28;20275;-61
2021/12/21 08:43:27;;;;;;;3.00;1.43;;;-3.40;99.90;;;;;;5031699;28;20238;-62
2021/12/21 08:45:55;;;;;;;5.57;2.23;;;-3.40;99.90;;;;;;5015017;28;20212;-63
2021/12/21 08:48:22;;;;;;;3.50;1.50;;;-3.80;99.90;;;;;;5014972;28;20190;-61
2021/12/21 08:50:50;;;;;;;3.67;1.50;;;-4.10;99.90;;;;;;5014831;28;20318;-61
2021/12/21 08:53:16;;;;;;;4.37;1.87;;;-4.20;99.90;;;;;;5013784;28;20227;-61
2021/12/21 08:55:43;;;;;;;3.63;1.70;;;-4.20;99.90;;;;;;5014443;28;20542;-60
2021/12/21 08:58:10;;;;;;;2.60;1.30;;;-4.20;99.90;;;;;;5014480;28;20199;-62
2021/12/21 09:00:36;;;;;;;4.20;2.23;;;-4.30;99.90;;;;;;5014465;28;20185;-62
2021/12/21 09:03:05;;;;;;;4.27;1.83;;;-4.20;99.90;;;;;;5014189;28;20246;-60
2021/12/21 09:05:31;;;;;;;5.13;1.83;;;-4.10;99.90;;;;;;5014422;28;20178;-61
2021/12/21 09:07:59;;;;;;;4.23;1.80;;;-3.90;99.90;;;;;;5014446;28;20196;-70
2021/12/21 09:10:26;;;;;;;6.53;2.20;;;-3.70;99.90;;;;;;5014595;28;20284;-63
2021/12/21 09:12:52;;;;;;;4.07;2.07;;;-3.40;99.90;;;;;;5013742;28;20222;-62
2021/12/21 09:15:23;;;;;;;3.57;1.80;;;-3.60;99.90;;;;;;4996052;28;20241;-62
2021/12/21 09:17:49;;;;;;;2.83;1.47;;;-3.80;99.90;;;;;;4996965;28;20169;-61
2021/12/21 09:20:20;;;;;;;10.37;3.20;;;-3.90;99.90;;;;;;5013736;28;20192;-62
2021/12/21 09:22:47;;;;;;;9.57;2.97;;;-4.00;99.90;;;;;;4996906;28;20180;-63
2021/12/21 09:25:13;;;;;;;5.93;2.60;;;-3.90;99.90;;;;;;5013791;28;20656;-62
2021/12/21 09:27:40;;;;;;;5.03;2.20;;;-4.10;99.90;;;;;;5013689;28;20553;-62
2021/12/21 09:30:08;;;;;;;5.67;2.17;;;-4.30;99.90;;;;;;5024304;28;20183;-63
2021/12/21 09:32:35;;;;;;;3.23;2.30;;;-4.30;99.90;;;;;;5015370;28;20317;-63
2021/12/21 09:35:01;;;;;;;4.13;2.13;;;-4.30;99.90;;;;;;5033300;28;20186;-65
2021/12/21 09:37:26;;;;;;;4.17;2.27;;;-4.20;99.90;;;;;;5015404;28;20175;-64
2021/12/21 09:39:55;;;;;;;3.60;1.90;;;-4.40;99.90;;;;;;5033578;28;20179;-62
2021/12/21 09:42:23;;;;;;;5.00;2.30;;;-4.40;99.90;;;;;;5033044;28;20647;-64
2021/12/21 09:44:49;;;;;;;6.37;2.27;;;-4.50;99.90;;;;;;5021013;28;20191;-60
2021/12/21 09:47:16;;;;;;;5.27;2.10;;;-4.60;99.90;;;;;;4995985;28;20260;-61
2021/12/21 09:49:44;;;;;;;9.27;2.67;;;-4.40;99.90;;;;;;5013492;28;20195;-62
2021/12/21 09:52:12;;;;;;;3.93;2.57;;;-4.20;99.90;;;;;;5030749;28;20605;-62
2021/12/21 09:54:39;;;;;;;3.77;1.87;;;-4.10;99.90;;;;;;5033055;28;20182;-60
2021/12/21 09:57:07;;;;;;;6.20;2.60;;;-3.90;99.90;;;;;;5032900;28;20178;-60
2021/12/21 09:59:34;;;;;;;5.20;2.47;;;-4.00;99.90;;;;;;5032923;28;20590;-64
2021/12/21 10:02:01;;;;;;;8.50;2.10;;;-4.00;99.90;;;;;;5032738;28;20221;-60
2021/12/21 10:04:28;;;;;;;4.80;2.07;;;-3.90;99.90;;;;;;5033008;28;20228;-61
2021/12/21 10:06:56;;;;;;;2.93;1.97;;;-4.00;99.90;;;;;;5032558;28;20191;-63
2021/12/21 10:09:31;;;;;;;5.17;2.20;;;-3.90;99.90;;;;;;5014734;28;20275;-63
2021/12/21 10:11:57;;;;;;;3.13;1.67;;;-3.70;99.90;;;;;;5032333;28;20648;-65
2021/12/21 10:14:25;;;;;;;6.17;2.30;;;-3.70;99.90;;;;;;5032434;28;20322;-63
2021/12/21 10:17:05;;;;;;;5.53;2.83;;;-3.70;99.90;;;;;;5032042;28;20233;-62
2021/12/21 10:19:31;;;;;;;7.27;3.10;;;-3.60;99.90;;;;;;5032825;28;20171;-62
2021/12/21 10:22:07;;;;;;;6.70;2.97;;;-3.40;99.90;;;;;;5031753;28;20542;-67
2021/12/21 10:24:42;;;;;;;7.83;3.33;;;-3.30;99.90;;;;;;5033004;28;20188;-66
2021/12/21 10:27:09;;;;;;;5.43;2.57;;;-3.10;99.90;;;;;;5014517;28;20207;-63
2021/12/21 10:29:46;;;;;;;4.83;2.70;;;-3.30;99.90;;;;;;5025750;28;20234;-62
2021/12/21 10:32:27;;;;;;;5.73;2.77;;;-3.40;99.90;;;;;;5011998;28;20324;-62
2021/12/21 10:35:01;;;;;;;3.23;1.80;;;-3.50;99.90;;;;;;5012568;28;20202;-63
2021/12/21 10:37:33;;;;;;;2.43;1.60;;;-3.60;99.90;;;;;;5012250;28;20186;-64
2021/12/21 10:40:10;;;;;;;6.40;2.33;;;-3.60;99.90;;;;;;5012686;28;20179;-61
2021/12/21 10:42:51;;;;;;;6.77;2.23;;;-3.40;99.90;;;;;;5012039;28;20595;-63
2021/12/21 10:45:19;;;;;;;4.30;1.90;;;-3.30;99.90;;;;;;5028115;28;20203;-63
2021/12/21 10:47:46;;;;;;;2.80;1.50;;;-3.40;99.90;;;;;;5013967;28;20292;-61
2021/12/21 10:50:13;;;;;;;3.47;1.70;;;-3.70;99.90;;;;;;5028889;28;20519;-61
2021/12/21 10:52:41;;;;;;;5.47;2.00;;;-3.90;99.90;;;;;;5011283;28;20290;-64
2021/12/21 10:55:16;;;;;;;4.97;2.47;;;-4.00;99.90;;;;;;5011813;28;20261;-61
2021/12/21 10:57:41;;;;;;;8.03;2.77;;;-3.90;99.90;;;;;;5011936;28;20247;-64
2021/12/21 11:00:14;;;;;;;3.47;1.67;;;-3.90;99.90;;;;;;5011840;28;20207;-63
2021/12/21 11:02:41;;;;;;;6.40;2.57;;;-3.80;99.90;;;;;;4994699;28;20192;-60
2021/12/21 11:05:18;;;;;;;5.47;2.23;;;-3.80;99.90;;;;;;4993802;28;20232;-62
2021/12/21 11:07:49;;;;;;;6.17;2.43;;;-3.70;99.90;;;;;;5011599;28;20188;-64
2021/12/21 11:10:25;;;;;;;13.00;3.50;;;-3.70;99.90;;;;;;5011868;28;20165;-63
2021/12/21 11:12:54;;;;;;;16.33;3.33;;;-3.70;99.90;;;;;;5011998;28;20287;-63
2021/12/21 11:15:29;;;;;;;7.53;1.67;;;-3.50;99.90;;;;;;5027510;28;20277;-63
2021/12/21 11:17:59;;;;;;;7.00;2.77;;;-3.60;99.80;;;;;;5013746;28;20547;-63
2021/12/21 11:20:26;;;;;;;13.10;1.80;;;-3.60;99.90;;;;;;5031807;28;20219;-60
2021/12/21 11:22:53;;;;;;;5.53;2.30;;;-3.50;99.90;;;;;;5030610;28;20291;-63
2021/12/21 11:25:21;;;;;;;7.43;3.23;;;-3.30;99.80;;;;;;5031466;28;20182;-61
2021/12/21 11:27:48;;;;;;;10.87;3.03;;;-3.20;99.70;;;;;;5031047;28;20186;-62
2021/12/21 11:30:20;;;;;;;7.23;1.93;;;-3.30;99.80;;;;;;5018683;28;20348;-62
2021/12/21 11:32:49;;;;;;;6.80;2.77;;;-3.20;99.90;;;;;;5011116;28;20645;-61
2021/12/21 11:37:50;;;;;;;7.90;3.37;;;-3.00;99.30;;;;;;5006525;28;20222;-63
2021/12/21 11:40:19;;;;;;;4.37;1.40;;;-3.10;99.60;;;;;;5011015;28;20185;-61
2021/12/21 11:42:51;;;;;;;6.63;2.60;;;-3.30;99.00;;;;;;5011425;28;20187;-64
2021/12/21 11:45:28;;;;;;;28.00;4.83;;;-3.50;98.50;;;;;;5026340;28;20184;-63
2021/12/21 11:48:02;;;;;;;3.67;2.30;;;-3.50;99.20;;;;;;5030413;28;20615;-62
2021/12/21 11:50:28;;;;;;;9.13;2.33;;;-3.50;98.20;;;;;;5026155;28;20614;-61
2021/12/21 11:53:01;;;;;;;5.97;2.47;;;-3.30;98.50;;;;;;4992467;28;20260;-61
2021/12/21 11:55:28;;;;;;;6.30;2.73;;;-3.10;99.60;;;;;;5010616;28;20526;-63
2021/12/21 11:58:21;;;;;;;14.03;3.70;;;-3.30;99.90;;;;;;5010932;28;20189;-62
2021/12/21 12:01:01;;;;;;;9.53;3.40;;;-3.30;99.90;;;;;;5010637;28;20260;-62
2021/12/21 12:03:29;;;;;;;9.23;3.13;;;-3.50;99.90;;;;;;5011435;28;20269;-63
2021/12/21 12:06:01;;;;;;;7.80;3.03;;;-3.80;99.90;;;;;;5011153;28;20182;-62
2021/12/21 12:08:42;;;;;;;5.60;2.50;;;-3.90;99.90;;;;;;5010104;28;20272;-63
2021/12/21 12:11:19;;;;;;;4.00;2.20;;;-3.90;99.90;;;;;;5010810;28;20239;-62
2021/12/21 12:13:45;;;;;;;19.43;4.67;;;-4.00;99.90;;;;;;5014011;28;20330;-62
2021/12/21 12:16:14;;;;;;;11.00;3.40;;;-4.00;99.90;;;;;;5030942;28;20911;-61
2021/12/21 12:18:44;;;;;;;6.30;3.07;;;-4.00;99.90;;;;;;5034487;28;20237;-61
2021/12/21 12:21:25;;;;;;;6.23;2.87;;;-3.90;99.90;;;;;;5034086;28;20178;-62
2021/12/21 12:23:54;;;;;;;11.43;3.50;;;-4.00;99.90;;;;;;5034346;28;20190;-61
2021/12/21 12:26:40;;;;;;;8.47;2.77;;;-3.40;99.90;;;;;;5034281;28;20184;-61
2021/12/21 12:29:18;;;;;;;9.00;2.93;;;-2.70;99.90;;;;;;5013926;28;20613;-62
2021/12/21 12:31:59;;;;;;;4.90;2.40;;;-2.90;99.90;;;;;;5014489;28;20241;-61
2021/12/21 12:34:31;;;;;;;11.73;3.30;;;-3.50;99.90;;;;;;5014608;28;20181;-61
2021/12/21 12:36:57;;;;;;;4.67;1.93;;;-4.00;99.90;;;;;;5014414;28;20537;-63
2021/12/21 12:39:34;;;;;;;8.53;2.37;;;-4.10;99.90;;;;;;5015221;28;20198;-62
2021/12/21 12:42:03;;;;;;;5.77;2.87;;;-4.30;99.90;;;;;;5015153;28;20627;-62
2021/12/21 12:44:29;;;;;;;8.00;1.97;;;-4.50;99.90;;;;;;5023491;28;20299;-60
2021/12/21 12:46:58;;;;;;;12.03;3.50;;;-4.40;99.90;;;;;;5034140;28;20173;-61
2021/12/21 12:49:26;;;;;;;15.37;3.57;;;-4.30;99.90;;;;;;5034243;28;20206;-61
2021/12/21 12:52:11;;;;;;;6.07;2.43;;;-4.10;99.90;;;;;;5018279;28;20211;-60
2021/12/21 12:54:52;;;;;;;6.93;3.73;;;-4.20;99.90;;;;;;5014576;28;20573;-61
2021/12/21 12:57:28;;;;;;;3.97;1.73;;;-4.30;99.90;;;;;;5014414;28;20183;-61
2021/12/21 12:59:57;;;;;;;3.40;1.77;;;-4.50;99.90;;;;;;5014994;28;20175;-62
2021/12/21 13:02:24;;;;;;;14.40;2.37;;;-4.60;99.90;;;;;;5014312;28;20269;-62
2021/12/21 13:04:50;;;;;;;8.77;2.90;;;-4.70;99.90;;;;;;5014642;28;20190;-61
2021/12/21 13:07:26;;;;;;;9.53;3.80;;;-4.70;99.90;;;;;;5013757;28;20180;-63
2021/12/21 13:10:01;;;;;;;5.90;1.83;;;-4.70;99.90;;;;;;5014400;28;20183;-62
2021/12/21 13:12:27;;;;;;;8.83;3.97;;;-4.70;99.90;;;;;;5014235;28;20190;-62
2021/12/21 13:14:54;;;;;;;43.70;5.40;;;-4.60;99.90;;;;;;5027013;28;20597;-61
2021/12/21 13:17:20;;;;;;;8.77;3.30;;;-4.60;99.90;;;;;;5033742;28;20178;-60
2021/12/21 13:19:45;;;;;;;6.93;2.60;;;-4.70;99.90;;;;;;5033476;28;20187;-61
2021/12/21 13:22:11;;;;;;;8.10;3.10;;;-4.80;99.90;;;;;;5033811;28;20708;-63
2021/12/21 13:24:42;;;;;;;8.43;2.50;;;-4.80;99.90;;;;;;5016372;28;20559;-61
2021/12/21 13:27:13;;;;;;;15.97;3.47;;;-4.90;99.90;;;;;;5033866;28;20198;-62
2021/12/21 13:29:41;;;;;;;4.37;2.23;;;-4.90;99.90;;;;;;5015374;28;20189;-62
2021/12/21 13:32:11;;;;;;;4.67;2.20;;;-5.00;99.90;;;;;;5033284;28;20225;-71
2021/12/21 13:34:44;;;;;;;7.57;2.07;;;-5.00;99.90;;;;;;5033695;28;20167;-62
2021/12/21 13:37:13;;;;;;;5.37;1.63;;;-5.00;99.90;;;;;;5033037;28;20166;-64
2021/12/21 13:39:44;;;;;;;4.23;1.73;;;-5.10;99.90;;;;;;5033277;28;20223;-61
2021/12/21 13:42:21;;;;;;;6.57;3.70;;;-5.10;99.90;;;;;;5015532;28;20186;-67
2021/12/21 13:44:50;;;;;;;4.37;2.43;;;-5.00;99.90;;;;;;5033376;28;20274;-60
2021/12/21 13:47:20;;;;;;;9.60;2.93;;;-5.10;99.90;;;;;;5033301;28;20248;-63
2021/12/21 13:49:57;;;;;;;4.90;2.37;;;-5.20;99.90;;;;;;5015853;28;20274;-62
2021/12/21 13:52:25;;;;;;;11.90;2.30;;;-5.30;99.90;;;;;;5013505;28;20207;-60
2021/12/21 13:54:50;;;;;;;12.13;2.40;;;-5.30;99.90;;;;;;5013851;28;20198;-64
2021/12/21 13:57:18;;;;;;;6.17;2.33;;;-5.30;99.90;;;;;;5013100;28;20179;-63